Airport View

Enter AWOS ICAO identifier for current METAR.

ex. KFNL

KSDL 212253Z 00000KT 10SM CLR 33/M04 A2985 RMK AO2 SLP083 T03331044

21 Sep 2019 23:25

Phone: 480-483-3049

Other Area AWOS: KDVT - KPHX - KFFZ - KGEU

TAF KSDL 211731Z 2118/2218 19005KT P6SM SKC FM212100 25006KT P6SM SKC FM220200 VRB03KT P6SM SKC